Boone, CO

1:42 PM MDT on August 20, 2014 (GMT -0600)
Ellicott | Change Station
CLOSE
Current Station
Airport
Location: Ellicott,
Elevation: 6037 ft
Nearby Weather Stations

Elev 6037 ft 38.76 °N, 104.31 °W | Updated 46 minutes ago

Clear
Clear
81 °F
Feels Like 81 °F
N
12
Wind Variable Wind from WSW
Gusts 16 mph

Today
High -- | Low -- °F
--% Chance of Precip.
Yesterday
High -- | Low -- °F
Precip. -- in
6:15 AM 7:43 PM
Waning Crescent, 19% visible
Pressure 29.74 in
Visibility 10.0 miles
Clouds Clear
Dew Point 46 °F
Humidity 29%
Rainfall 0.00 in
Snow Depth Not available.
UV 11 out of 12
Pollen 10.00 out of 12
Air Quality Not available.
Flu Activity Not available.
METAR KABH 201856Z AUTO 24010G14KT 10SM CLR 27/08 A3000 RMK AO2 SLP070 T02720078 $

More Conditions Fewer Conditions

Pressure 29.74 in
Visibility 10.0 miles
Clouds Clear
Dew Point 46 °F
Humidity 29%
Rainfall 0.00 in
Snow Depth Not available.
UV 11 out of 12
Pollen 10.00 out of 12
Air Quality Not available.
Flu Activity Not available.
METAR KABH 201856Z AUTO 24010G14KT 10SM CLR 27/08 A3000 RMK AO2 SLP070 T02720078 $

More Conditions Fewer Conditions

10-Day Weather Forecast

Almanac

Astronomy

Aug. 20, 2014 Rise Set
Actual Time 6:15 AM MDT 7:43 PM MDT
Civil Twilight 5:48 AM MDT 8:11 PM MDT
Nautical Twilight 5:14 AM MDT 8:44 PM MDT
Astronomical Twilight 4:39 AM MDT 9:19 PM MDT
Moon 1:59 AM MDT 4:29 PM MDT
Length of Visible Light 14h 23m
Length of Day
13h 27m
Tomorrow will be 2m 15s shorter.
Waning Crescent, 19% of the Moon is Illuminated
Today
Waning Crescent
Aug 25
New
Sep 2
First Quarter
Sep 8
Full
Sep 15
Last Quarter

Today's Extremes

State Highs State Lows

Community

WunderPhotos

Upload Photos

1,745,727 photos uploaded!

WunderBlogs® & News

By Dr. Jeff Masters
Director of Meteorology, Weather Underground
By Kari Strenfel
Meteorologist, Weather Underground
By Christopher C. Burt
Weather Historian, Weather Underground
August 20, 2014
August 20, 2014
August 20, 2014

Nearby

Snow Depth

Station Depth Elevation
Medano Pass 0 in 9620 ft
Ute Creek 0 in 10650 ft
Rough And Tumble 0 in 10360 ft
Niwot 0 in 9910 ft
Independence Pass 192 in 10600 ft

Earthquake Activity

City Distance Mag. Time & Date
No recent earthquake activity has been reported nearby.
Minimum magnitude displayed is 2.5.

Coastal Water Temperatures

Place Temperature
No Stations Reporting

Nearby Weather Stations